sensor_id;sensor_type;location;lat;lon;timestamp;P1;durP1;ratioP1;P2;durP2;ratioP2
62861;SDS011;48953;53.110;5.592;2022-07-04T00:00:34;5.38;;;4.10;;
62861;SDS011;48953;53.110;5.592;2022-07-04T00:03:00;7.22;;;4.32;;
62861;SDS011;48953;53.110;5.592;2022-07-04T00:05:25;6.00;;;4.32;;
62861;SDS011;48953;53.110;5.592;2022-07-04T00:07:51;9.10;;;4.57;;
62861;SDS011;48953;53.110;5.592;2022-07-04T00:10:17;5.47;;;4.55;;
62861;SDS011;48953;53.110;5.592;2022-07-04T00:12:44;7.18;;;4.68;;
62861;SDS011;48953;53.110;5.592;2022-07-04T00:15:10;7.53;;;4.47;;
62861;SDS011;48953;53.110;5.592;2022-07-04T00:17:36;7.20;;;4.60;;
62861;SDS011;48953;53.110;5.592;2022-07-04T00:20:03;7.70;;;4.70;;
62861;SDS011;48953;53.110;5.592;2022-07-04T00:22:30;5.28;;;4.72;;
62861;SDS011;48953;53.110;5.592;2022-07-04T00:24:56;7.60;;;5.07;;
62861;SDS011;48953;53.110;5.592;2022-07-04T00:27:21;7.28;;;4.80;;
62861;SDS011;48953;53.110;5.592;2022-07-04T00:29:47;7.53;;;4.85;;
62861;SDS011;48953;53.110;5.592;2022-07-04T00:32:13;4.97;;;4.20;;
62861;SDS011;48953;53.110;5.592;2022-07-04T00:34:38;9.27;;;5.05;;
62861;SDS011;48953;53.110;5.592;2022-07-04T00:37:04;8.20;;;4.93;;
62861;SDS011;48953;53.110;5.592;2022-07-04T00:39:30;5.35;;;4.20;;
62861;SDS011;48953;53.110;5.592;2022-07-04T00:41:56;10.07;;;4.95;;
62861;SDS011;48953;53.110;5.592;2022-07-04T00:44:21;8.50;;;5.10;;
62861;SDS011;48953;53.110;5.592;2022-07-04T00:46:47;6.95;;;4.70;;
62861;SDS011;48953;53.110;5.592;2022-07-04T00:49:14;8.02;;;4.95;;
62861;SDS011;48953;53.110;5.592;2022-07-04T00:51:41;6.07;;;3.95;;
62861;SDS011;48953;53.110;5.592;2022-07-04T00:54:09;11.45;;;4.93;;
62861;SDS011;48953;53.110;5.592;2022-07-04T00:56:38;7.68;;;4.97;;
62861;SDS011;48953;53.110;5.592;2022-07-04T00:59:05;8.07;;;4.78;;
62861;SDS011;48953;53.110;5.592;2022-07-04T01:01:32;5.03;;;4.10;;
62861;SDS011;48953;53.110;5.592;2022-07-04T01:03:59;7.55;;;4.40;;
62861;SDS011;48953;53.110;5.592;2022-07-04T01:06:26;8.55;;;4.72;;
62861;SDS011;48953;53.110;5.592;2022-07-04T01:08:51;6.90;;;4.90;;
62861;SDS011;48953;53.110;5.592;2022-07-04T01:11:17;5.07;;;3.92;;
62861;SDS011;48953;53.110;5.592;2022-07-04T01:13:43;7.32;;;4.30;;
62861;SDS011;48953;53.110;5.592;2022-07-04T01:16:09;7.07;;;4.63;;
62861;SDS011;48953;53.110;5.592;2022-07-04T01:18:36;10.18;;;4.90;;
62861;SDS011;48953;53.110;5.592;2022-07-04T01:21:02;7.20;;;4.57;;
62861;SDS011;48953;53.110;5.592;2022-07-04T01:23:28;8.07;;;4.00;;
62861;SDS011;48953;53.110;5.592;2022-07-04T01:25:54;6.63;;;3.97;;
62861;SDS011;48953;53.110;5.592;2022-07-04T01:28:21;6.32;;;4.45;;
62861;SDS011;48953;53.110;5.592;2022-07-04T01:30:48;6.70;;;3.80;;
62861;SDS011;48953;53.110;5.592;2022-07-04T01:33:13;8.85;;;4.35;;
62861;SDS011;48953;53.110;5.592;2022-07-04T01:35:39;6.38;;;3.92;;
62861;SDS011;48953;53.110;5.592;2022-07-04T01:38:05;7.05;;;4.25;;
62861;SDS011;48953;53.110;5.592;2022-07-04T01:40:31;7.80;;;4.25;;
62861;SDS011;48953;53.110;5.592;2022-07-04T01:42:57;4.75;;;3.50;;
62861;SDS011;48953;53.110;5.592;2022-07-04T01:45:25;5.85;;;3.92;;
62861;SDS011;48953;53.110;5.592;2022-07-04T01:47:51;6.82;;;4.07;;
62861;SDS011;48953;53.110;5.592;2022-07-04T01:50:17;4.75;;;3.85;;
62861;SDS011;48953;53.110;5.592;2022-07-04T01:52:42;7.22;;;4.43;;
62861;SDS011;48953;53.110;5.592;2022-07-04T01:55:09;7.32;;;4.32;;
62861;SDS011;48953;53.110;5.592;2022-07-04T01:57:35;6.63;;;3.95;;
62861;SDS011;48953;53.110;5.592;2022-07-04T02:00:02;7.00;;;4.30;;
62861;SDS011;48953;53.110;5.592;2022-07-04T02:02:51;6.53;;;4.13;;
62861;SDS011;48953;53.110;5.592;2022-07-04T02:05:16;6.28;;;3.60;;
62861;SDS011;48953;53.110;5.592;2022-07-04T02:07:42;8.45;;;4.45;;
62861;SDS011;48953;53.110;5.592;2022-07-04T02:10:08;6.60;;;4.40;;
62861;SDS011;48953;53.110;5.592;2022-07-04T02:12:35;5.13;;;3.80;;
62861;SDS011;48953;53.110;5.592;2022-07-04T02:15:19;7.18;;;4.22;;
62861;SDS011;48953;53.110;5.592;2022-07-04T02:17:45;7.88;;;4.38;;
62861;SDS011;48953;53.110;5.592;2022-07-04T02:20:10;8.25;;;4.25;;
62861;SDS011;48953;53.110;5.592;2022-07-04T02:22:36;9.60;;;5.10;;
62861;SDS011;48953;53.110;5.592;2022-07-04T02:25:02;8.05;;;4.57;;
62861;SDS011;48953;53.110;5.592;2022-07-04T02:27:28;7.72;;;5.00;;
62861;SDS011;48953;53.110;5.592;2022-07-04T02:29:54;9.38;;;4.80;;
62861;SDS011;48953;53.110;5.592;2022-07-04T02:32:19;10.35;;;5.35;;
62861;SDS011;48953;53.110;5.592;2022-07-04T02:34:45;5.88;;;3.88;;
62861;SDS011;48953;53.110;5.592;2022-07-04T02:37:11;6.18;;;4.90;;
62861;SDS011;48953;53.110;5.592;2022-07-04T02:39:36;7.90;;;4.90;;
62861;SDS011;48953;53.110;5.592;2022-07-04T02:42:02;9.25;;;5.13;;
62861;SDS011;48953;53.110;5.592;2022-07-04T02:44:27;6.82;;;4.82;;
62861;SDS011;48953;53.110;5.592;2022-07-04T02:46:53;6.88;;;4.85;;
62861;SDS011;48953;53.110;5.592;2022-07-04T02:49:19;6.63;;;4.93;;
62861;SDS011;48953;53.110;5.592;2022-07-04T02:51:44;7.30;;;5.00;;
62861;SDS011;48953;53.110;5.592;2022-07-04T02:54:10;9.57;;;5.88;;
62861;SDS011;48953;53.110;5.592;2022-07-04T02:56:36;8.15;;;5.13;;
62861;SDS011;48953;53.110;5.592;2022-07-04T02:59:01;12.63;;;5.65;;
62861;SDS011;48953;53.110;5.592;2022-07-04T03:01:27;11.35;;;5.65;;
62861;SDS011;48953;53.110;5.592;2022-07-04T03:03:53;8.20;;;5.60;;
62861;SDS011;48953;53.110;5.592;2022-07-04T03:06:18;7.07;;;5.20;;
62861;SDS011;48953;53.110;5.592;2022-07-04T03:08:44;8.65;;;5.10;;
62861;SDS011;48953;53.110;5.592;2022-07-04T03:11:10;10.52;;;5.40;;
62861;SDS011;48953;53.110;5.592;2022-07-04T03:13:36;15.45;;;5.75;;
62861;SDS011;48953;53.110;5.592;2022-07-04T03:16:03;7.40;;;4.95;;
62861;SDS011;48953;53.110;5.592;2022-07-04T03:18:29;6.95;;;4.28;;
62861;SDS011;48953;53.110;5.592;2022-07-04T03:20:55;6.50;;;4.20;;
62861;SDS011;48953;53.110;5.592;2022-07-04T03:23:20;9.10;;;4.50;;
62861;SDS011;48953;53.110;5.592;2022-07-04T03:25:46;6.13;;;3.90;;
62861;SDS011;48953;53.110;5.592;2022-07-04T03:28:12;8.50;;;4.22;;
62861;SDS011;48953;53.110;5.592;2022-07-04T03:30:37;7.50;;;4.38;;
62861;SDS011;48953;53.110;5.592;2022-07-04T03:33:03;8.02;;;4.10;;
62861;SDS011;48953;53.110;5.592;2022-07-04T03:35:29;6.50;;;3.78;;
62861;SDS011;48953;53.110;5.592;2022-07-04T03:37:55;5.65;;;3.50;;
62861;SDS011;48953;53.110;5.592;2022-07-04T03:40:21;7.88;;;3.85;;
62861;SDS011;48953;53.110;5.592;2022-07-04T03:42:47;5.75;;;4.10;;
62861;SDS011;48953;53.110;5.592;2022-07-04T03:45:12;7.63;;;4.45;;
62861;SDS011;48953;53.110;5.592;2022-07-04T03:47:38;8.68;;;4.50;;
62861;SDS011;48953;53.110;5.592;2022-07-04T03:50:04;8.02;;;4.60;;
62861;SDS011;48953;53.110;5.592;2022-07-04T03:52:30;7.80;;;4.43;;
62861;SDS011;48953;53.110;5.592;2022-07-04T03:54:56;6.72;;;3.92;;
62861;SDS011;48953;53.110;5.592;2022-07-04T03:57:21;6.70;;;4.50;;
62861;SDS011;48953;53.110;5.592;2022-07-04T03:59:47;8.35;;;4.65;;
62861;SDS011;48953;53.110;5.592;2022-07-04T04:02:13;6.10;;;4.55;;
62861;SDS011;48953;53.110;5.592;2022-07-04T04:04:38;8.63;;;4.15;;
62861;SDS011;48953;53.110;5.592;2022-07-04T04:07:22;7.38;;;4.35;;
62861;SDS011;48953;53.110;5.592;2022-07-04T04:09:48;8.32;;;4.50;;
62861;SDS011;48953;53.110;5.592;2022-07-04T04:12:13;5.95;;;4.75;;
62861;SDS011;48953;53.110;5.592;2022-07-04T04:14:39;7.47;;;4.22;;
62861;SDS011;48953;53.110;5.592;2022-07-04T04:17:05;5.07;;;3.50;;
62861;SDS011;48953;53.110;5.592;2022-07-04T04:19:30;3.38;;;2.85;;
62861;SDS011;48953;53.110;5.592;2022-07-04T04:21:56;3.65;;;2.70;;
62861;SDS011;48953;53.110;5.592;2022-07-04T04:24:22;5.65;;;3.15;;
62861;SDS011;48953;53.110;5.592;2022-07-04T04:26:48;3.67;;;2.47;;
62861;SDS011;48953;53.110;5.592;2022-07-04T04:29:14;4.22;;;2.67;;
62861;SDS011;48953;53.110;5.592;2022-07-04T04:31:39;3.65;;;2.42;;
62861;SDS011;48953;53.110;5.592;2022-07-04T04:34:05;2.45;;;1.92;;
62861;SDS011;48953;53.110;5.592;2022-07-04T04:36:31;4.20;;;2.00;;
62861;SDS011;48953;53.110;5.592;2022-07-04T04:38:57;3.10;;;2.15;;
62861;SDS011;48953;53.110;5.592;2022-07-04T04:41:23;3.33;;;2.10;;
62861;SDS011;48953;53.110;5.592;2022-07-04T04:43:48;2.47;;;1.90;;
62861;SDS011;48953;53.110;5.592;2022-07-04T04:46:14;5.95;;;2.28;;
62861;SDS011;48953;53.110;5.592;2022-07-04T04:48:39;3.92;;;1.63;;
62861;SDS011;48953;53.110;5.592;2022-07-04T04:51:05;6.50;;;2.13;;
62861;SDS011;48953;53.110;5.592;2022-07-04T04:53:31;3.55;;;1.95;;
62861;SDS011;48953;53.110;5.592;2022-07-04T04:55:56;2.83;;;1.70;;
62861;SDS011;48953;53.110;5.592;2022-07-04T04:58:22;5.60;;;2.78;;
62861;SDS011;48953;53.110;5.592;2022-07-04T05:00:48;2.63;;;2.10;;
62861;SDS011;48953;53.110;5.592;2022-07-04T05:03:15;2.20;;;1.63;;
62861;SDS011;48953;53.110;5.592;2022-07-04T05:05:41;2.25;;;1.50;;
62861;SDS011;48953;53.110;5.592;2022-07-04T05:08:07;2.75;;;1.85;;
62861;SDS011;48953;53.110;5.592;2022-07-04T05:10:33;3.97;;;1.70;;
62861;SDS011;48953;53.110;5.592;2022-07-04T05:12:58;2.15;;;1.58;;
62861;SDS011;48953;53.110;5.592;2022-07-04T05:15:24;4.80;;;1.67;;
62861;SDS011;48953;53.110;5.592;2022-07-04T05:17:49;3.10;;;1.92;;
62861;SDS011;48953;53.110;5.592;2022-07-04T05:20:15;3.45;;;1.70;;
62861;SDS011;48953;53.110;5.592;2022-07-04T05:22:41;3.13;;;1.45;;
62861;SDS011;48953;53.110;5.592;2022-07-04T05:25:07;6.18;;;1.80;;
62861;SDS011;48953;53.110;5.592;2022-07-04T05:27:33;1.92;;;1.30;;
62861;SDS011;48953;53.110;5.592;2022-07-04T05:29:59;4.72;;;1.60;;
62861;SDS011;48953;53.110;5.592;2022-07-04T05:32:25;2.45;;;1.70;;
62861;SDS011;48953;53.110;5.592;2022-07-04T05:34:51;2.60;;;1.60;;
62861;SDS011;48953;53.110;5.592;2022-07-04T05:37:17;2.75;;;1.30;;
62861;SDS011;48953;53.110;5.592;2022-07-04T05:39:42;5.60;;;1.33;;
62861;SDS011;48953;53.110;5.592;2022-07-04T05:42:09;3.00;;;1.45;;
62861;SDS011;48953;53.110;5.592;2022-07-04T05:44:34;3.38;;;1.27;;
62861;SDS011;48953;53.110;5.592;2022-07-04T05:47:00;2.50;;;1.30;;
62861;SDS011;48953;53.110;5.592;2022-07-04T05:49:25;2.22;;;1.10;;
62861;SDS011;48953;53.110;5.592;2022-07-04T05:51:51;2.28;;;1.10;;
62861;SDS011;48953;53.110;5.592;2022-07-04T05:54:17;3.63;;;1.15;;
62861;SDS011;48953;53.110;5.592;2022-07-04T05:56:42;2.50;;;1.10;;
62861;SDS011;48953;53.110;5.592;2022-07-04T05:59:08;2.90;;;1.05;;
62861;SDS011;48953;53.110;5.592;2022-07-04T06:01:35;1.27;;;0.95;;
62861;SDS011;48953;53.110;5.592;2022-07-04T06:04:02;2.47;;;0.90;;
62861;SDS011;48953;53.110;5.592;2022-07-04T06:06:30;3.75;;;1.10;;
62861;SDS011;48953;53.110;5.592;2022-07-04T06:08:56;1.90;;;0.98;;
62861;SDS011;48953;53.110;5.592;2022-07-04T06:11:22;2.38;;;1.00;;
62861;SDS011;48953;53.110;5.592;2022-07-04T06:13:48;2.95;;;1.10;;
62861;SDS011;48953;53.110;5.592;2022-07-04T06:16:14;2.33;;;1.15;;
62861;SDS011;48953;53.110;5.592;2022-07-04T06:18:40;2.42;;;1.00;;
62861;SDS011;48953;53.110;5.592;2022-07-04T06:21:06;1.65;;;0.90;;
62861;SDS011;48953;53.110;5.592;2022-07-04T06:23:32;3.97;;;1.00;;
62861;SDS011;48953;53.110;5.592;2022-07-04T06:25:58;4.13;;;0.90;;
62861;SDS011;48953;53.110;5.592;2022-07-04T06:28:23;2.55;;;0.95;;
62861;SDS011;48953;53.110;5.592;2022-07-04T06:30:49;1.10;;;0.80;;
62861;SDS011;48953;53.110;5.592;2022-07-04T06:33:15;1.45;;;0.90;;
62861;SDS011;48953;53.110;5.592;2022-07-04T06:35:40;1.58;;;0.73;;
62861;SDS011;48953;53.110;5.592;2022-07-04T06:38:25;1.08;;;0.73;;
62861;SDS011;48953;53.110;5.592;2022-07-04T06:40:56;2.58;;;0.90;;
62861;SDS011;48953;53.110;5.592;2022-07-04T06:43:22;1.80;;;0.90;;
62861;SDS011;48953;53.110;5.592;2022-07-04T06:45:49;2.92;;;1.02;;
62861;SDS011;48953;53.110;5.592;2022-07-04T06:48:14;1.55;;;1.00;;
62861;SDS011;48953;53.110;5.592;2022-07-04T06:50:40;1.88;;;0.77;;
62861;SDS011;48953;53.110;5.592;2022-07-04T06:53:06;2.35;;;0.80;;
62861;SDS011;48953;53.110;5.592;2022-07-04T06:55:33;1.55;;;0.70;;
62861;SDS011;48953;53.110;5.592;2022-07-04T06:57:59;3.00;;;0.90;;
62861;SDS011;48953;53.110;5.592;2022-07-04T07:00:25;2.80;;;0.80;;
62861;SDS011;48953;53.110;5.592;2022-07-04T07:02:51;2.72;;;1.13;;
62861;SDS011;48953;53.110;5.592;2022-07-04T07:05:17;1.90;;;0.85;;
62861;SDS011;48953;53.110;5.592;2022-07-04T07:07:43;1.27;;;0.57;;
62861;SDS011;48953;53.110;5.592;2022-07-04T07:10:09;2.20;;;0.80;;
62861;SDS011;48953;53.110;5.592;2022-07-04T07:12:34;2.53;;;0.63;;
62861;SDS011;48953;53.110;5.592;2022-07-04T07:15:00;2.08;;;0.68;;
62861;SDS011;48953;53.110;5.592;2022-07-04T07:17:27;2.58;;;0.80;;
62861;SDS011;48953;53.110;5.592;2022-07-04T07:19:53;3.03;;;0.80;;
62861;SDS011;48953;53.110;5.592;2022-07-04T07:22:19;1.27;;;0.68;;
62861;SDS011;48953;53.110;5.592;2022-07-04T07:24:45;2.65;;;0.80;;
62861;SDS011;48953;53.110;5.592;2022-07-04T07:27:10;1.08;;;0.70;;
62861;SDS011;48953;53.110;5.592;2022-07-04T07:29:36;2.50;;;0.70;;
62861;SDS011;48953;53.110;5.592;2022-07-04T07:32:02;1.77;;;0.80;;
62861;SDS011;48953;53.110;5.592;2022-07-04T07:34:28;1.70;;;0.75;;
62861;SDS011;48953;53.110;5.592;2022-07-04T07:36:54;1.75;;;0.73;;
62861;SDS011;48953;53.110;5.592;2022-07-04T07:39:19;1.83;;;0.73;;
62861;SDS011;48953;53.110;5.592;2022-07-04T07:41:46;1.88;;;0.75;;
62861;SDS011;48953;53.110;5.592;2022-07-04T07:44:12;2.25;;;0.77;;
62861;SDS011;48953;53.110;5.592;2022-07-04T07:46:38;2.42;;;0.70;;
62861;SDS011;48953;53.110;5.592;2022-07-04T07:49:03;1.45;;;0.90;;
62861;SDS011;48953;53.110;5.592;2022-07-04T07:51:29;2.05;;;0.80;;
62861;SDS011;48953;53.110;5.592;2022-07-04T07:53:55;3.97;;;1.10;;
62861;SDS011;48953;53.110;5.592;2022-07-04T07:56:20;3.88;;;1.00;;
62861;SDS011;48953;53.110;5.592;2022-07-04T07:58:47;2.58;;;0.75;;
62861;SDS011;48953;53.110;5.592;2022-07-04T08:01:13;2.88;;;1.00;;
62861;SDS011;48953;53.110;5.592;2022-07-04T08:03:39;2.50;;;0.85;;
62861;SDS011;48953;53.110;5.592;2022-07-04T08:06:23;3.33;;;1.30;;
62861;SDS011;48953;53.110;5.592;2022-07-04T08:08:49;3.47;;;1.08;;
62861;SDS011;48953;53.110;5.592;2022-07-04T08:11:15;1.92;;;0.93;;
62861;SDS011;48953;53.110;5.592;2022-07-04T08:13:41;1.73;;;0.75;;
62861;SDS011;48953;53.110;5.592;2022-07-04T08:16:07;1.17;;;0.82;;
62861;SDS011;48953;53.110;5.592;2022-07-04T08:18:33;3.60;;;1.20;;
62861;SDS011;48953;53.110;5.592;2022-07-04T08:20:58;2.17;;;1.10;;
62861;SDS011;48953;53.110;5.592;2022-07-04T08:23:24;2.15;;;0.88;;
62861;SDS011;48953;53.110;5.592;2022-07-04T08:25:50;0.95;;;0.75;;
62861;SDS011;48953;53.110;5.592;2022-07-04T08:28:16;2.00;;;1.10;;
62861;SDS011;48953;53.110;5.592;2022-07-04T08:30:41;3.25;;;0.90;;
62861;SDS011;48953;53.110;5.592;2022-07-04T08:33:07;2.03;;;0.80;;
62861;SDS011;48953;53.110;5.592;2022-07-04T08:35:33;2.28;;;0.90;;
62861;SDS011;48953;53.110;5.592;2022-07-04T08:37:58;1.52;;;0.80;;
62861;SDS011;48953;53.110;5.592;2022-07-04T08:40:25;2.25;;;0.90;;
62861;SDS011;48953;53.110;5.592;2022-07-04T08:42:53;4.33;;;1.20;;
62861;SDS011;48953;53.110;5.592;2022-07-04T08:45:26;2.83;;;1.00;;
62861;SDS011;48953;53.110;5.592;2022-07-04T08:48:00;2.33;;;1.00;;
62861;SDS011;48953;53.110;5.592;2022-07-04T08:50:34;4.10;;;1.10;;
62861;SDS011;48953;53.110;5.592;2022-07-04T08:55:41;1.65;;;0.82;;
62861;SDS011;48953;53.110;5.592;2022-07-04T08:58:26;1.92;;;0.90;;
62861;SDS011;48953;53.110;5.592;2022-07-04T09:00:59;1.67;;;0.73;;
62861;SDS011;48953;53.110;5.592;2022-07-04T09:03:27;2.05;;;0.80;;
62861;SDS011;48953;53.110;5.592;2022-07-04T09:05:54;1.58;;;1.02;;
62861;SDS011;48953;53.110;5.592;2022-07-04T09:08:21;2.92;;;0.90;;
62861;SDS011;48953;53.110;5.592;2022-07-04T09:10:48;3.00;;;1.10;;
62861;SDS011;48953;53.110;5.592;2022-07-04T09:13:14;1.92;;;0.88;;
62861;SDS011;48953;53.110;5.592;2022-07-04T09:15:42;2.83;;;1.00;;
62861;SDS011;48953;53.110;5.592;2022-07-04T09:18:18;2.08;;;1.00;;
62861;SDS011;48953;53.110;5.592;2022-07-04T09:20:44;1.90;;;0.90;;
62861;SDS011;48953;53.110;5.592;2022-07-04T09:23:16;2.10;;;0.80;;
62861;SDS011;48953;53.110;5.592;2022-07-04T09:26:09;1.25;;;0.70;;
62861;SDS011;48953;53.110;5.592;2022-07-04T09:28:39;1.33;;;0.90;;
62861;SDS011;48953;53.110;5.592;2022-07-04T09:31:18;2.33;;;0.68;;
62861;SDS011;48953;53.110;5.592;2022-07-04T09:33:56;0.70;;;0.70;;
62861;SDS011;48953;53.110;5.592;2022-07-04T09:36:29;3.83;;;0.90;;
62861;SDS011;48953;53.110;5.592;2022-07-04T09:39:07;1.67;;;0.90;;
62861;SDS011;48953;53.110;5.592;2022-07-04T09:46:59;2.10;;;0.90;;
62861;SDS011;48953;53.110;5.592;2022-07-04T09:49:57;1.98;;;0.85;;
62861;SDS011;48953;53.110;5.592;2022-07-04T09:52:26;2.58;;;0.75;;
62861;SDS011;48953;53.110;5.592;2022-07-04T09:55:01;2.47;;;0.85;;
62861;SDS011;48953;53.110;5.592;2022-07-04T09:57:30;3.10;;;0.70;;
62861;SDS011;48953;53.110;5.592;2022-07-04T10:02:43;2.53;;;0.73;;
62861;SDS011;48953;53.110;5.592;2022-07-04T10:05:09;2.88;;;1.05;;
62861;SDS011;48953;53.110;5.592;2022-07-04T10:07:36;3.05;;;1.10;;
62861;SDS011;48953;53.110;5.592;2022-07-04T10:10:25;1.25;;;0.63;;
62861;SDS011;48953;53.110;5.592;2022-07-04T10:12:51;0.98;;;0.68;;
62861;SDS011;48953;53.110;5.592;2022-07-04T10:15:18;2.70;;;0.68;;
62861;SDS011;48953;53.110;5.592;2022-07-04T10:17:44;2.03;;;0.88;;
62861;SDS011;48953;53.110;5.592;2022-07-04T10:20:11;6.47;;;1.00;;
62861;SDS011;48953;53.110;5.592;2022-07-04T10:22:37;1.77;;;0.80;;
62861;SDS011;48953;53.110;5.592;2022-07-04T10:25:03;2.20;;;0.70;;
62861;SDS011;48953;53.110;5.592;2022-07-04T10:27:30;2.42;;;0.90;;
62861;SDS011;48953;53.110;5.592;2022-07-04T10:29:56;2.08;;;1.00;;
62861;SDS011;48953;53.110;5.592;2022-07-04T10:32:26;1.88;;;0.77;;
62861;SDS011;48953;53.110;5.592;2022-07-04T10:34:53;2.22;;;0.80;;
62861;SDS011;48953;53.110;5.592;2022-07-04T10:37:18;2.85;;;0.80;;
62861;SDS011;48953;53.110;5.592;2022-07-04T10:39:45;2.45;;;0.80;;
62861;SDS011;48953;53.110;5.592;2022-07-04T10:42:21;1.48;;;0.73;;
62861;SDS011;48953;53.110;5.592;2022-07-04T10:44:51;0.88;;;0.70;;
62861;SDS011;48953;53.110;5.592;2022-07-04T10:47:24;2.00;;;1.00;;
62861;SDS011;48953;53.110;5.592;2022-07-04T10:49:52;1.48;;;0.85;;
62861;SDS011;48953;53.110;5.592;2022-07-04T10:52:18;3.95;;;0.93;;
62861;SDS011;48953;53.110;5.592;2022-07-04T10:54:44;2.92;;;0.88;;
62861;SDS011;48953;53.110;5.592;2022-07-04T10:59:37;3.35;;;0.95;;
62861;SDS011;48953;53.110;5.592;2022-07-04T11:02:26;2.63;;;0.90;;
62861;SDS011;48953;53.110;5.592;2022-07-04T11:05:04;3.17;;;0.82;;
62861;SDS011;48953;53.110;5.592;2022-07-04T11:17:58;5.60;;;0.70;;
62861;SDS011;48953;53.110;5.592;2022-07-04T11:20:29;1.35;;;0.50;;
62861;SDS011;48953;53.110;5.592;2022-07-04T11:25:45;2.35;;;0.82;;
62861;SDS011;48953;53.110;5.592;2022-07-04T11:28:20;2.53;;;0.60;;
62861;SDS011;48953;53.110;5.592;2022-07-04T11:30:54;1.17;;;0.43;;
62861;SDS011;48953;53.110;5.592;2022-07-04T11:33:22;1.95;;;0.70;;
62861;SDS011;48953;53.110;5.592;2022-07-04T11:36:03;2.08;;;0.90;;
62861;SDS011;48953;53.110;5.592;2022-07-04T11:41:10;1.95;;;0.73;;
62861;SDS011;48953;53.110;5.592;2022-07-04T11:43:54;0.93;;;0.47;;
62861;SDS011;48953;53.110;5.592;2022-07-04T11:46:39;1.48;;;0.63;;
62861;SDS011;48953;53.110;5.592;2022-07-04T11:49:11;1.65;;;0.60;;
62861;SDS011;48953;53.110;5.592;2022-07-04T11:51:44;0.55;;;0.50;;
62861;SDS011;48953;53.110;5.592;2022-07-04T11:54:11;2.08;;;0.80;;
62861;SDS011;48953;53.110;5.592;2022-07-04T11:56:37;2.40;;;0.88;;
62861;SDS011;48953;53.110;5.592;2022-07-04T11:59:12;1.40;;;0.50;;
62861;SDS011;48953;53.110;5.592;2022-07-04T12:01:42;1.65;;;0.52;;
62861;SDS011;48953;53.110;5.592;2022-07-04T12:04:19;0.98;;;0.40;;
62861;SDS011;48953;53.110;5.592;2022-07-04T12:06:45;0.70;;;0.50;;
62861;SDS011;48953;53.110;5.592;2022-07-04T12:09:13;3.30;;;0.60;;
62861;SDS011;48953;53.110;5.592;2022-07-04T12:14:21;0.85;;;0.30;;
62861;SDS011;48953;53.110;5.592;2022-07-04T12:16:47;1.15;;;0.50;;
62861;SDS011;48953;53.110;5.592;2022-07-04T12:19:12;2.90;;;0.50;;
62861;SDS011;48953;53.110;5.592;2022-07-04T12:21:38;1.65;;;0.60;;
62861;SDS011;48953;53.110;5.592;2022-07-04T12:24:04;2.17;;;0.60;;
62861;SDS011;48953;53.110;5.592;2022-07-04T12:26:33;3.70;;;0.40;;
62861;SDS011;48953;53.110;5.592;2022-07-04T12:29:02;2.00;;;0.43;;
62861;SDS011;48953;53.110;5.592;2022-07-04T12:31:41;0.82;;;0.47;;
62861;SDS011;48953;53.110;5.592;2022-07-04T12:34:14;1.80;;;0.50;;
62861;SDS011;48953;53.110;5.592;2022-07-04T12:42:05;2.00;;;0.77;;
62861;SDS011;48953;53.110;5.592;2022-07-04T12:44:35;2.30;;;0.70;;
62861;SDS011;48953;53.110;5.592;2022-07-04T12:47:05;2.55;;;0.40;;
62861;SDS011;48953;53.110;5.592;2022-07-04T12:49:32;2.13;;;0.50;;
62861;SDS011;48953;53.110;5.592;2022-07-04T12:52:31;0.60;;;0.40;;
62861;SDS011;48953;53.110;5.592;2022-07-04T12:55:04;4.05;;;0.80;;
62861;SDS011;48953;53.110;5.592;2022-07-04T12:57:34;2.78;;;0.65;;
62861;SDS011;48953;53.110;5.592;2022-07-04T12:59:59;1.20;;;0.40;;
62861;SDS011;48953;53.110;5.592;2022-07-04T13:02:25;0.75;;;0.50;;
62861;SDS011;48953;53.110;5.592;2022-07-04T13:04:50;0.68;;;0.40;;
62861;SDS011;48953;53.110;5.592;2022-07-04T13:07:17;1.98;;;0.73;;
62861;SDS011;48953;53.110;5.592;2022-07-04T13:09:43;1.67;;;0.65;;
62861;SDS011;48953;53.110;5.592;2022-07-04T13:12:10;2.08;;;0.50;;
62861;SDS011;48953;53.110;5.592;2022-07-04T13:14:55;1.77;;;0.68;;
62861;SDS011;48953;53.110;5.592;2022-07-04T13:17:22;3.63;;;0.60;;
62861;SDS011;48953;53.110;5.592;2022-07-04T13:19:49;3.75;;;1.10;;
62861;SDS011;48953;53.110;5.592;2022-07-04T13:22:17;1.55;;;0.70;;
62861;SDS011;48953;53.110;5.592;2022-07-04T13:24:44;1.10;;;0.70;;
62861;SDS011;48953;53.110;5.592;2022-07-04T13:27:10;2.15;;;0.80;;
62861;SDS011;48953;53.110;5.592;2022-07-04T13:29:35;4.20;;;0.73;;
62861;SDS011;48953;53.110;5.592;2022-07-04T13:32:02;1.85;;;0.43;;
62861;SDS011;48953;53.110;5.592;2022-07-04T13:34:29;1.40;;;0.50;;
62861;SDS011;48953;53.110;5.592;2022-07-04T13:36:55;2.40;;;0.50;;
62861;SDS011;48953;53.110;5.592;2022-07-04T13:39:21;2.97;;;0.43;;
62861;SDS011;48953;53.110;5.592;2022-07-04T13:41:47;2.15;;;0.55;;
62861;SDS011;48953;53.110;5.592;2022-07-04T13:44:13;2.60;;;0.40;;
62861;SDS011;48953;53.110;5.592;2022-07-04T13:46:41;1.10;;;0.50;;
62861;SDS011;48953;53.110;5.592;2022-07-04T13:49:07;1.70;;;0.30;;
62861;SDS011;48953;53.110;5.592;2022-07-04T13:51:33;3.63;;;0.55;;
62861;SDS011;48953;53.110;5.592;2022-07-04T13:53:59;0.98;;;0.40;;
62861;SDS011;48953;53.110;5.592;2022-07-04T13:56:25;1.38;;;0.30;;
62861;SDS011;48953;53.110;5.592;2022-07-04T13:58:51;1.73;;;0.50;;
62861;SDS011;48953;53.110;5.592;2022-07-04T14:01:17;1.77;;;0.40;;
62861;SDS011;48953;53.110;5.592;2022-07-04T14:03:45;1.38;;;0.85;;
62861;SDS011;48953;53.110;5.592;2022-07-04T14:06:11;0.90;;;0.50;;
62861;SDS011;48953;53.110;5.592;2022-07-04T14:08:37;3.40;;;0.60;;
62861;SDS011;48953;53.110;5.592;2022-07-04T14:11:03;0.43;;;0.40;;
62861;SDS011;48953;53.110;5.592;2022-07-04T14:13:29;1.70;;;0.40;;
62861;SDS011;48953;53.110;5.592;2022-07-04T14:15:54;2.28;;;0.40;;
62861;SDS011;48953;53.110;5.592;2022-07-04T14:18:20;1.90;;;0.50;;
62861;SDS011;48953;53.110;5.592;2022-07-04T14:20:46;2.15;;;0.60;;
62861;SDS011;48953;53.110;5.592;2022-07-04T14:23:12;2.42;;;0.47;;
62861;SDS011;48953;53.110;5.592;2022-07-04T14:25:38;2.17;;;0.47;;
62861;SDS011;48953;53.110;5.592;2022-07-04T14:28:04;3.25;;;0.80;;
62861;SDS011;48953;53.110;5.592;2022-07-04T14:30:30;1.23;;;0.50;;
62861;SDS011;48953;53.110;5.592;2022-07-04T14:32:55;1.42;;;0.47;;
62861;SDS011;48953;53.110;5.592;2022-07-04T14:35:21;2.97;;;0.80;;
62861;SDS011;48953;53.110;5.592;2022-07-04T14:37:47;0.50;;;0.50;;
62861;SDS011;48953;53.110;5.592;2022-07-04T14:40:13;2.03;;;0.50;;
62861;SDS011;48953;53.110;5.592;2022-07-04T14:42:40;0.80;;;0.40;;
62861;SDS011;48953;53.110;5.592;2022-07-04T14:45:06;2.22;;;0.60;;
62861;SDS011;48953;53.110;5.592;2022-07-04T14:47:32;2.80;;;0.50;;
62861;SDS011;48953;53.110;5.592;2022-07-04T14:49:59;1.98;;;0.60;;
62861;SDS011;48953;53.110;5.592;2022-07-04T14:52:26;1.30;;;0.60;;
62861;SDS011;48953;53.110;5.592;2022-07-04T14:54:52;2.15;;;0.80;;
62861;SDS011;48953;53.110;5.592;2022-07-04T14:57:17;1.98;;;0.50;;
62861;SDS011;48953;53.110;5.592;2022-07-04T14:59:43;1.80;;;0.50;;
62861;SDS011;48953;53.110;5.592;2022-07-04T15:02:08;1.50;;;0.40;;
62861;SDS011;48953;53.110;5.592;2022-07-04T15:04:34;0.63;;;0.40;;
62861;SDS011;48953;53.110;5.592;2022-07-04T15:06:59;1.42;;;0.52;;
62861;SDS011;48953;53.110;5.592;2022-07-04T15:09:25;1.08;;;0.60;;
62861;SDS011;48953;53.110;5.592;2022-07-04T15:11:51;2.40;;;0.40;;
62861;SDS011;48953;53.110;5.592;2022-07-04T15:14:17;0.65;;;0.40;;
62861;SDS011;48953;53.110;5.592;2022-07-04T15:16:43;0.93;;;0.40;;
62861;SDS011;48953;53.110;5.592;2022-07-04T15:19:08;1.90;;;0.47;;
62861;SDS011;48953;53.110;5.592;2022-07-04T15:21:35;1.10;;;0.40;;
62861;SDS011;48953;53.110;5.592;2022-07-04T15:24:19;2.10;;;0.60;;
62861;SDS011;48953;53.110;5.592;2022-07-04T15:26:46;3.05;;;0.43;;